International Virtual Aviation Organisation

Eastern Europe and Northern Asia MCD

 

Карточка аэропорта UHPP

Внимание!
Информация на этой странице в стадии наполнения.
Если вы не увидели какой-то информации, или заметили неточность - пожалуйста сообщите нам!
Спасибо!
Команда RU-STAFF
Название аэропортаЕлизово
Название аэропорта (англ.)Yelizovo
Превышение131 ft. (39.9 m.)
Координаты53°10.002', 158°27.24'
Высота перехода2400m
Эшелон переходаQFE>756:FL90;756>QFE>729:FL100;729>QFE:FL110
Коды ответчика6630-6657
Зона ОрВДПетропавловск-Камчатский РПИ (UHPP)
Данные METARUHPP 200900Z 09002MPS 070V130 9999 -SHRA FEW011 BKN023CB 03/02 Q1018 R34L/290250 NOSIG RMK MT OBSC QFE760/1013
Проноз погоды (TAF)UHPP 200730Z 2009/2115 13005G14MPS 5000 -SHRA BR OVC020CB TEMPO 2009/2022 0700 +SHRASN FG VV003
NOTAMshow/hide NOTAM
AWOS   TABLE

Информация о ВПП

ВПП Длина ВПП (м.) Покрытие Курс ВПП Частота ILS
34R3400Бетон344110.3
16L3400Бетон164 
34L2500Бетон344 
16R2500Бетон164 

Диспетчерские позиции

Позывной Наименование органа УВД Частота
UHPP_R_APPПетропавловск - Круг119.400
UHPP_TWRПетропавловск - Старт118.100



Спутниковое изображение